createdAt,value
2018-05-07T00:00:01.851Z,65.14
2018-05-07T00:01:01.937Z,65.71
2018-05-07T00:02:01.872Z,65.61
2018-05-07T00:03:01.883Z,66.19
2018-05-07T00:04:01.905Z,66.25
2018-05-07T00:05:01.924Z,66.25
2018-05-07T00:06:02.081Z,67.01
2018-05-07T00:07:01.958Z,67.11
2018-05-07T00:08:01.966Z,66.82
2018-05-07T00:09:02.018Z,66.06
2018-05-07T00:10:01.964Z,65.87
2018-05-07T00:11:01.991Z,65.87
2018-05-07T00:12:01.980Z,65.71
2018-05-07T00:13:01.993Z,64.47
2018-05-07T00:14:02.009Z,66.19
2018-05-07T00:15:02.020Z,64.75
2018-05-07T00:16:02.041Z,63.42
2018-05-07T00:17:02.042Z,62.65
2018-05-07T00:18:02.076Z,62.65
2018-05-07T00:19:02.064Z,63.80
2018-05-07T00:20:02.073Z,63.23
2018-05-07T00:21:02.086Z,63.42
2018-05-07T00:22:02.094Z,64.78
2018-05-07T00:23:02.116Z,64.78
2018-05-07T00:24:02.115Z,64.12
2018-05-07T00:25:02.145Z,62.21
2018-05-07T00:26:02.148Z,63.93
2018-05-07T00:27:02.149Z,63.54
2018-05-07T00:28:02.159Z,62.97
2018-05-07T00:29:02.174Z,63.83
2018-05-07T00:30:02.184Z,63.70
2018-05-07T00:31:02.221Z,64.37
2018-05-07T00:32:02.227Z,65.04
2018-05-07T00:33:02.219Z,64.94
2018-05-07T00:34:02.225Z,66.00
2018-05-07T00:35:02.256Z,65.61
2018-05-07T00:36:02.248Z,65.80
2018-05-07T00:37:02.268Z,66.28
2018-05-07T00:38:02.269Z,66.00
2018-05-07T00:39:02.284Z,65.90
2018-05-07T00:40:02.300Z,66.19
2018-05-07T00:41:02.337Z,65.58
2018-05-07T00:42:02.328Z,66.28
2018-05-07T00:43:02.325Z,65.87
2018-05-07T00:44:02.358Z,66.25
2018-05-07T00:45:02.347Z,65.77
2018-05-07T00:46:02.355Z,66.92
2018-05-07T00:47:02.365Z,66.25
2018-05-07T00:48:02.379Z,65.87
2018-05-07T00:49:02.392Z,65.48
2018-05-07T00:50:02.400Z,65.87
2018-05-07T00:51:02.415Z,66.35
2018-05-07T00:52:02.458Z,65.87
2018-05-07T00:53:02.432Z,66.15
2018-05-07T00:54:02.482Z,66.06
2018-05-07T00:55:02.465Z,64.81
2018-05-07T00:56:02.463Z,65.77
2018-05-07T00:57:02.478Z,66.15
2018-05-07T00:58:02.487Z,65.48
2018-05-07T00:59:02.496Z,65.77
2018-05-07T01:00:02.508Z,64.53
2018-05-07T01:01:02.551Z,64.40
2018-05-07T01:02:02.534Z,65.07
2018-05-07T01:03:02.579Z,64.69
2018-05-07T01:04:02.547Z,65.64
2018-05-07T01:05:02.559Z,67.36
2018-05-07T01:06:02.590Z,66.98
2018-05-07T01:07:02.598Z,66.31
2018-05-07T01:08:02.596Z,66.78
2018-05-07T01:09:02.607Z,67.07
2018-05-07T01:10:02.614Z,67.52
2018-05-07T01:11:02.623Z,68.85
2018-05-07T01:12:02.635Z,69.33
2018-05-07T01:13:02.645Z,69.23
2018-05-07T01:14:02.663Z,69.14
2018-05-07T01:15:02.667Z,70.09
2018-05-07T01:16:02.677Z,70.47
2018-05-07T01:17:02.701Z,70.32
2018-05-07T01:18:02.698Z,69.62
2018-05-07T01:19:02.725Z,70.57
2018-05-07T01:20:02.729Z,70.28
2018-05-07T01:21:02.731Z,70.95
2018-05-07T01:22:02.740Z,71.23
2018-05-07T01:23:02.754Z,72.00
2018-05-07T01:24:02.766Z,72.28
2018-05-07T01:25:02.772Z,72.67
2018-05-07T01:26:02.793Z,72.57
2018-05-07T01:27:02.791Z,71.94
2018-05-07T01:28:02.806Z,71.08
2018-05-07T01:29:02.846Z,70.98
2018-05-07T01:30:02.831Z,70.67
2018-05-07T01:31:02.836Z,71.23
2018-05-07T01:32:02.854Z,72.00
2018-05-07T01:33:02.859Z,71.72
2018-05-07T01:34:02.869Z,71.72
2018-05-07T01:35:02.881Z,71.81
2018-05-07T01:36:02.887Z,71.91
2018-05-07T01:37:02.899Z,71.62
2018-05-07T01:38:02.915Z,71.62
2018-05-07T01:39:02.920Z,71.14
2018-05-07T01:40:02.934Z,71.91
2018-05-07T01:41:02.941Z,71.52
2018-05-07T01:42:02.958Z,71.33
2018-05-07T01:43:02.964Z,71.33
2018-05-07T01:44:02.975Z,70.47
2018-05-07T01:45:02.986Z,71.14
2018-05-07T01:46:02.994Z,71.04
2018-05-07T01:47:03.002Z,70.32
2018-05-07T01:48:03.016Z,70.22
2018-05-07T01:49:03.028Z,69.74
2018-05-07T01:50:03.046Z,68.98
2018-05-07T01:51:03.130Z,68.70
2018-05-07T01:52:03.053Z,68.79
2018-05-07T01:53:03.083Z,69.08
2018-05-07T01:54:03.078Z,68.70
2018-05-07T01:55:03.084Z,69.37
2018-05-07T01:56:03.107Z,69.65
2018-05-07T01:57:03.108Z,70.89
2018-05-07T01:58:03.132Z,70.76
2018-05-07T01:59:03.132Z,71.81
2018-05-07T02:00:03.138Z,71.91
2018-05-07T02:01:03.158Z,71.94
2018-05-07T02:02:03.161Z,70.95
2018-05-07T02:03:03.173Z,70.67
2018-05-07T02:04:03.183Z,70.86
2018-05-07T02:05:03.194Z,70.95
2018-05-07T02:06:03.203Z,70.76
2018-05-07T02:07:03.220Z,70.42
2018-05-07T02:08:03.224Z,69.56
2018-05-07T02:09:03.235Z,68.70
2018-05-07T02:10:03.248Z,68.12
2018-05-07T02:11:03.263Z,68.03
2018-05-07T02:12:03.263Z,67.55
2018-05-07T02:13:03.327Z,67.74
2018-05-07T02:14:03.290Z,67.83
2018-05-07T02:15:03.296Z,67.36
2018-05-07T02:16:03.312Z,67.93
2018-05-07T02:17:03.314Z,67.46
2018-05-07T02:18:03.328Z,67.55
2018-05-07T02:19:03.338Z,67.46
2018-05-07T02:20:03.353Z,68.22
2018-05-07T02:21:03.358Z,67.52
2018-05-07T02:22:03.368Z,67.52
2018-05-07T02:23:03.377Z,68.76
2018-05-07T02:24:03.387Z,67.99
2018-05-07T02:25:03.401Z,68.03
2018-05-07T02:26:03.407Z,68.47
2018-05-07T02:27:03.419Z,67.36
2018-05-07T02:28:03.453Z,68.03
2018-05-07T02:29:03.449Z,68.70
2018-05-07T02:30:03.455Z,68.79
2018-05-07T02:31:03.460Z,69.17
2018-05-07T02:32:03.478Z,69.27
2018-05-07T02:33:03.481Z,68.92
2018-05-07T02:34:03.500Z,68.70
2018-05-07T02:35:03.508Z,68.88
2018-05-07T02:36:03.515Z,69.08
2018-05-07T02:37:03.525Z,70.32
2018-05-07T02:38:03.533Z,71.18
2018-05-07T02:39:03.597Z,70.89
2018-05-07T02:40:03.553Z,72.13
2018-05-07T02:41:03.570Z,72.00
2018-05-07T02:42:03.593Z,72.38
2018-05-07T02:43:03.587Z,72.13
2018-05-07T02:44:03.603Z,71.08
2018-05-07T02:45:03.612Z,70.32
2018-05-07T02:46:03.635Z,70.61
2018-05-07T02:47:03.667Z,71.08
2018-05-07T02:48:03.634Z,71.08
2018-05-07T02:49:03.650Z,69.46
2018-05-07T02:50:03.716Z,69.17
2018-05-07T02:51:03.701Z,70.70
2018-05-07T02:52:03.678Z,70.13
2018-05-07T02:53:03.693Z,69.62
2018-05-07T02:54:03.703Z,70.67
2018-05-07T02:55:03.718Z,70.57
2018-05-07T02:56:03.721Z,71.04
2018-05-07T02:57:03.754Z,70.76
2018-05-07T02:58:03.750Z,70.76
2018-05-07T02:59:03.750Z,70.57
2018-05-07T03:00:03.758Z,70.95
2018-05-07T03:01:03.772Z,70.86
2018-05-07T03:02:03.784Z,70.86
2018-05-07T03:03:03.799Z,71.72
2018-05-07T03:04:03.799Z,71.33
2018-05-07T03:05:03.812Z,70.76
2018-05-07T03:06:03.822Z,70.86
2018-05-07T03:07:03.832Z,70.82
2018-05-07T03:08:03.847Z,70.67
2018-05-07T03:09:03.852Z,70.95
2018-05-07T03:10:03.871Z,72.09
2018-05-07T03:11:03.869Z,71.96
2018-05-07T03:12:03.955Z,72.16
2018-05-07T03:13:03.895Z,72.16
2018-05-07T03:14:03.906Z,72.34
2018-05-07T03:15:03.920Z,71.87
2018-05-07T03:16:03.946Z,72.72
2018-05-07T03:17:03.935Z,73.30
2018-05-07T03:18:03.942Z,73.01
2018-05-07T03:19:03.956Z,72.82
2018-05-07T03:20:05.062Z,72.63
2018-05-07T03:21:03.975Z,72.06
2018-05-07T03:22:04.004Z,72.06
2018-05-07T03:23:03.996Z,72.16
2018-05-07T03:24:04.037Z,71.96
2018-05-07T03:25:04.017Z,72.72
2018-05-07T03:26:04.024Z,73.49
2018-05-07T03:27:04.033Z,73.30
2018-05-07T03:28:04.055Z,73.01
2018-05-07T03:29:04.072Z,73.39
2018-05-07T03:30:04.068Z,73.21
2018-05-07T03:31:04.076Z,73.26
2018-05-07T03:32:04.086Z,74.02
2018-05-07T03:33:04.103Z,74.35
2018-05-07T03:34:04.108Z,74.31
2018-05-07T03:35:04.118Z,74.02
2018-05-07T03:36:04.133Z,74.98
2018-05-07T03:37:04.151Z,74.98
2018-05-07T03:38:04.146Z,75.93
2018-05-07T03:39:04.149Z,75.26
2018-05-07T03:40:04.167Z,74.88
2018-05-07T03:41:04.175Z,75.26
2018-05-07T03:42:04.180Z,75.64
2018-05-07T03:43:04.202Z,75.36
2018-05-07T03:44:04.199Z,76.40
2018-05-07T03:45:04.209Z,76.31
2018-05-07T03:46:04.222Z,75.07
2018-05-07T03:47:04.265Z,74.88
2018-05-07T03:48:04.240Z,74.50
2018-05-07T03:49:04.252Z,75.16
2018-05-07T03:50:04.260Z,74.98
2018-05-07T03:51:04.268Z,74.60
2018-05-07T03:52:04.281Z,74.31
2018-05-07T03:53:04.292Z,74.40
2018-05-07T03:54:04.301Z,74.40
2018-05-07T03:55:04.311Z,74.60
2018-05-07T03:56:04.319Z,73.93
2018-05-07T03:57:04.338Z,73.96
2018-05-07T03:58:04.339Z,73.45
2018-05-07T03:59:04.350Z,73.58
2018-05-07T04:00:04.359Z,73.39
2018-05-07T04:01:04.368Z,72.97
2018-05-07T04:02:04.376Z,73.21
2018-05-07T04:03:04.397Z,73.49
2018-05-07T04:04:04.398Z,73.39
2018-05-07T04:05:04.421Z,73.21
2018-05-07T04:06:04.414Z,73.30
2018-05-07T04:07:04.428Z,73.30
2018-05-07T04:08:04.438Z,72.92
2018-05-07T04:09:04.485Z,73.11
2018-05-07T04:10:04.455Z,72.92
2018-05-07T04:11:04.465Z,73.45
2018-05-07T04:12:04.474Z,73.30
2018-05-07T04:13:04.520Z,73.26
2018-05-07T04:14:04.496Z,73.30
2018-05-07T04:15:04.505Z,74.54
2018-05-07T04:16:04.526Z,73.93
2018-05-07T04:17:04.524Z,75.01
2018-05-07T04:18:04.533Z,75.01
2018-05-07T04:19:04.567Z,73.77
2018-05-07T04:20:04.555Z,74.82
2018-05-07T04:21:04.561Z,74.82
2018-05-07T04:22:04.591Z,75.01
2018-05-07T04:23:04.581Z,74.44
2018-05-07T04:24:04.597Z,73.96
2018-05-07T04:25:04.613Z,73.39
2018-05-07T04:26:04.611Z,74.16
2018-05-07T04:27:04.621Z,74.92
2018-05-07T04:28:04.630Z,74.16
2018-05-07T04:29:04.642Z,73.30
2018-05-07T04:30:04.652Z,73.96
2018-05-07T04:31:04.674Z,73.39
2018-05-07T04:32:04.669Z,74.54
2018-05-07T04:33:04.680Z,74.06
2018-05-07T04:34:04.689Z,73.30
2018-05-07T04:35:04.699Z,73.96
2018-05-07T04:36:04.721Z,74.35
2018-05-07T04:37:04.726Z,73.68
2018-05-07T04:38:04.746Z,73.30
2018-05-07T04:39:04.737Z,73.01
2018-05-07T04:40:04.754Z,73.58
2018-05-07T04:41:04.759Z,73.87
2018-05-07T04:42:13.678Z,74.35
2018-05-07T04:44:19.171Z,74.54
2018-05-07T04:45:10.421Z,75.11
2018-05-07T04:47:24.518Z,75.68
2018-05-07T04:48:15.762Z,76.54
2018-05-07T04:49:15.891Z,75.49
2018-05-07T04:50:15.828Z,75.68
2018-05-07T04:51:15.919Z,75.78
2018-05-07T04:52:15.863Z,75.96
2018-05-07T04:53:15.830Z,75.78
2018-05-07T04:54:15.857Z,76.64
2018-05-07T04:55:15.830Z,77.30
2018-05-07T04:56:15.843Z,76.54
2018-05-07T04:57:15.854Z,76.25
2018-05-07T04:58:15.859Z,76.44
2018-05-07T04:59:15.903Z,77.11
2018-05-07T05:00:24.647Z,77.69
2018-05-07T05:02:31.652Z,77.69
2018-05-07T05:03:21.405Z,77.69
2018-05-07T05:05:27.147Z,77.87
2018-05-07T05:06:26.893Z,77.72
2018-05-07T05:08:44.668Z,75.91
2018-05-07T05:09:32.419Z,75.05
2018-05-07T05:11:46.779Z,74.67
2018-05-07T05:12:37.968Z,74.48
2018-05-07T05:13:38.177Z,73.43
2018-05-07T05:14:46.759Z,73.52
2018-05-07T05:16:52.320Z,73.56
2018-05-07T05:17:43.590Z,73.47
2018-05-07T05:19:46.761Z,73.18
2018-05-07T05:20:37.956Z,72.51
2018-05-07T05:22:52.352Z,72.99
2018-05-07T05:23:52.271Z,72.89
2018-05-07T05:25:57.872Z,72.61
2018-05-07T05:26:49.025Z,72.23
2018-05-07T05:29:03.479Z,70.98
2018-05-07T05:29:54.618Z,72.23
2018-05-07T05:33:42.375Z,72.23
2018-05-07T05:34:42.458Z,73.18
2018-05-07T05:36:46.896Z,71.66
2018-05-07T05:37:46.978Z,72.07
2018-05-07T05:39:40.309Z,71.02
2018-05-07T05:40:40.365Z,71.02
2018-05-07T05:42:45.244Z,72.17
2018-05-07T05:43:45.057Z,71.21
2018-05-07T05:45:49.454Z,70.73
2018-05-07T05:46:49.380Z,72.83
2018-05-07T05:48:54.027Z,70.64
2018-05-07T05:49:53.983Z,71.78
2018-05-07T05:51:58.428Z,72.17
2018-05-07T05:52:58.488Z,71.88
2018-05-07T05:53:58.481Z,70.54
2018-05-07T05:54:58.672Z,70.36
2018-05-07T05:55:58.510Z,71.12
2018-05-07T05:56:58.480Z,71.12
2018-05-07T05:57:58.518Z,71.69
2018-05-07T05:58:58.503Z,71.41
2018-05-07T05:59:58.500Z,71.98
2018-05-07T06:00:58.512Z,71.72
2018-05-07T06:01:58.517Z,70.54
2018-05-07T06:02:58.529Z,69.68
2018-05-07T06:03:58.553Z,71.25
2018-05-07T06:04:58.550Z,70.67
2018-05-07T06:05:58.579Z,70.87
2018-05-07T06:06:58.567Z,70.58
2018-05-07T06:07:58.579Z,71.06
2018-05-07T06:08:58.596Z,71.06
2018-05-07T06:09:58.599Z,70.77
2018-05-07T06:10:58.611Z,70.48
2018-05-07T06:11:58.623Z,69.62
2018-05-07T06:12:58.646Z,70.48
2018-05-07T06:13:58.638Z,69.72
2018-05-07T06:14:58.798Z,69.82
2018-05-07T06:15:58.664Z,69.82
2018-05-07T06:16:58.678Z,69.72
2018-05-07T06:17:58.682Z,70.39
2018-05-07T06:18:58.697Z,70.23
2018-05-07T06:19:58.702Z,70.23
2018-05-07T06:20:58.729Z,70.04
2018-05-07T06:21:58.726Z,69.56
2018-05-07T06:22:58.731Z,70.42
2018-05-07T06:23:58.833Z,69.85
2018-05-07T06:24:58.755Z,69.66
2018-05-07T06:25:58.783Z,69.66
2018-05-07T06:26:58.777Z,69.09
2018-05-07T06:27:58.808Z,68.41
2018-05-07T06:28:58.796Z,69.56
2018-05-07T06:29:58.822Z,69.47
2018-05-07T06:30:58.814Z,69.70
2018-05-07T06:31:58.853Z,68.26
2018-05-07T06:32:58.841Z,68.26
2018-05-07T06:33:58.850Z,68.84
2018-05-07T06:34:58.858Z,68.64
2018-05-07T06:35:58.867Z,67.59
2018-05-07T06:36:58.885Z,68.35
2018-05-07T06:37:58.895Z,67.97
2018-05-07T06:38:58.908Z,68.55
2018-05-07T06:39:58.912Z,68.35
2018-05-07T06:40:58.928Z,67.59
2018-05-07T06:41:58.938Z,68.55
2018-05-07T06:42:58.945Z,68.26
2018-05-07T06:43:58.959Z,68.26
2018-05-07T06:44:58.971Z,67.59
2018-05-07T06:45:59.055Z,66.96
2018-05-07T06:46:58.986Z,65.90
2018-05-07T06:47:58.995Z,66.38
2018-05-07T06:48:59.007Z,66.47
2018-05-07T06:49:59.019Z,66.09
2018-05-07T06:50:59.033Z,66.00
2018-05-07T06:51:59.037Z,66.67
2018-05-07T06:52:59.060Z,66.32
2018-05-07T06:53:59.064Z,66.96
2018-05-07T06:54:59.070Z,66.76
2018-05-07T06:55:59.091Z,65.71
2018-05-07T06:56:59.094Z,66.22
2018-05-07T06:57:59.118Z,67.18
2018-05-07T06:58:59.116Z,66.41
2018-05-07T06:59:59.127Z,65.94
2018-05-07T07:00:59.141Z,66.99
2018-05-07T07:01:59.196Z,66.61
2018-05-07T07:02:59.365Z,67.18
2018-05-07T07:03:59.171Z,66.89
2018-05-07T07:04:59.180Z,66.41
2018-05-07T07:05:59.191Z,66.13
2018-05-07T07:06:59.202Z,66.03
2018-05-07T07:07:59.297Z,66.41
2018-05-07T07:08:59.223Z,65.94
2018-05-07T07:09:59.239Z,66.03
2018-05-07T07:10:59.257Z,67.69
2018-05-07T07:11:59.259Z,66.93
2018-05-07T07:12:59.266Z,66.06
2018-05-07T07:13:59.276Z,66.25
2018-05-07T07:14:59.295Z,66.64
2018-05-07T07:15:59.303Z,64.92
2018-05-07T07:16:59.358Z,65.11
2018-05-07T07:17:59.329Z,66.83
2018-05-07T07:18:59.357Z,66.25
2018-05-07T07:19:59.345Z,65.97
2018-05-07T07:20:59.360Z,66.25
2018-05-07T07:21:59.364Z,65.49
2018-05-07T07:22:59.392Z,66.16
2018-05-07T07:23:59.387Z,66.54
2018-05-07T07:24:59.397Z,65.97
2018-05-07T07:25:59.410Z,65.68
2018-05-07T07:26:59.421Z,65.62
2018-05-07T07:27:59.558Z,63.99
2018-05-07T07:28:59.445Z,64.28
2018-05-07T07:29:59.468Z,64.28
2018-05-07T07:30:59.471Z,64.37
2018-05-07T07:31:59.476Z,64.95
2018-05-07T07:32:59.487Z,64.66
2018-05-07T07:33:59.510Z,64.95
2018-05-07T07:34:59.515Z,64.56
2018-05-07T07:35:59.522Z,62.36
2018-05-07T07:36:59.532Z,61.34
2018-05-07T07:37:59.543Z,62.01
2018-05-07T07:38:59.557Z,62.96
2018-05-07T07:39:59.571Z,63.26
2018-05-07T07:40:59.578Z,62.68
2018-05-07T07:41:59.589Z,62.87
2018-05-07T07:42:59.613Z,62.74
2018-05-07T07:43:59.612Z,63.51
2018-05-07T07:44:59.622Z,62.65
2018-05-07T07:45:59.639Z,62.74
2018-05-07T07:46:59.652Z,62.36
2018-05-07T07:47:59.673Z,62.96
2018-05-07T07:48:59.679Z,62.30
2018-05-07T07:49:59.691Z,61.15
2018-05-07T07:50:59.697Z,60.70
2018-05-07T07:51:59.702Z,60.89
2018-05-07T07:52:59.712Z,60.50
2018-05-07T07:53:59.725Z,60.60
2018-05-07T07:54:59.736Z,61.27
2018-05-07T07:55:59.746Z,61.08
2018-05-07T07:56:59.758Z,61.27
2018-05-07T07:57:59.770Z,61.94
2018-05-07T07:58:59.867Z,62.42
2018-05-07T07:59:59.803Z,61.85
2018-05-07T08:00:59.808Z,61.27
2018-05-07T08:01:59.819Z,60.50
2018-05-07T08:02:59.833Z,60.99
2018-05-07T08:03:59.839Z,61.56
2018-05-07T08:04:59.857Z,61.37
2018-05-07T08:05:59.871Z,62.13
2018-05-07T08:07:08.722Z,60.79
2018-05-07T08:09:04.503Z,59.48
2018-05-07T08:10:12.212Z,59.00
2018-05-07T08:12:09.093Z,59.48
2018-05-07T08:14:40.820Z,59.67
2018-05-07T08:15:48.316Z,59.19
2018-05-07T08:17:54.230Z,59.96
2018-05-07T08:20:18.714Z,57.59
2018-05-07T08:21:26.388Z,57.21
2018-05-07T08:23:24.434Z,55.96
2018-05-07T08:24:32.052Z,56.05
2018-05-07T08:26:28.786Z,57.62
2018-05-07T08:27:28.981Z,56.18
2018-05-07T08:28:36.684Z,56.27
2018-05-07T08:30:33.360Z,55.41
2018-05-07T08:31:41.176Z,54.35
2018-05-07T08:33:37.991Z,54.38
2018-05-07T08:34:37.895Z,54.25
2018-05-07T08:35:46.639Z,52.34
2018-05-07T08:37:42.405Z,52.62
2018-05-07T08:38:42.466Z,52.17
2018-05-07T08:40:46.931Z,53.52
2018-05-07T08:41:55.849Z,53.61
2018-05-07T08:43:40.486Z,53.23
2018-05-07T08:44:40.631Z,52.75
2018-05-07T08:46:46.279Z,55.15
2018-05-07T08:47:55.148Z,55.37
2018-05-07T08:49:39.768Z,52.00
2018-05-07T08:50:47.689Z,52.87
2018-05-07T08:52:45.388Z,55.76
2018-05-07T08:53:54.051Z,53.35
2018-05-07T08:55:49.936Z,52.10
2018-05-07T08:56:58.735Z,52.29
2018-05-07T08:58:54.481Z,54.12
2018-05-07T08:59:54.324Z,53.47
2018-05-07T09:01:59.220Z,54.24
2018-05-07T09:03:08.891Z,52.89
2018-05-07T09:05:12.546Z,53.38
2018-05-07T09:06:12.626Z,53.83
2018-05-07T09:08:08.340Z,52.61
2018-05-07T09:09:17.286Z,54.41
2018-05-07T09:11:13.744Z,52.32
2018-05-07T09:13:46.043Z,52.61
2018-05-07T09:16:19.472Z,53.28
2018-05-07T09:17:19.223Z,52.22
2018-05-07T09:19:23.897Z,50.32
2018-05-07T09:20:31.635Z,49.74
2018-05-07T09:22:28.253Z,48.88
2018-05-07T09:23:35.976Z,48.21
2018-05-07T09:25:32.262Z,50.61
2018-05-07T09:26:32.248Z,50.61
2018-05-07T09:28:36.305Z,52.15
2018-05-07T09:29:36.281Z,49.65
2018-05-07T09:31:40.341Z,51.02
2018-05-07T09:32:40.310Z,50.32
2018-05-07T09:34:44.354Z,50.32
2018-05-07T09:35:44.364Z,50.42
2018-05-07T09:37:48.386Z,50.32
2018-05-07T09:38:48.369Z,50.81
2018-05-07T09:40:52.413Z,50.45
2018-05-07T09:41:52.403Z,50.25
2018-05-07T09:43:56.451Z,49.68
2018-05-07T09:44:56.442Z,50.25
2018-05-07T09:47:00.482Z,51.60
2018-05-07T09:48:00.480Z,51.60
2018-05-07T09:49:53.434Z,52.27
2018-05-07T09:50:53.445Z,48.54
2018-05-07T09:52:57.499Z,48.16
2018-05-07T09:53:57.512Z,49.60
2018-05-07T09:56:01.559Z,49.60
2018-05-07T09:57:01.548Z,49.79
2018-05-07T09:58:01.523Z,49.29
2018-05-07T09:59:01.539Z,49.29
2018-05-07T10:00:01.542Z,50.25
2018-05-07T10:01:01.550Z,50.25
2018-05-07T10:02:01.573Z,49.65
2018-05-07T10:03:01.585Z,50.73
2018-05-07T10:04:01.596Z,50.35
2018-05-07T10:05:01.648Z,48.16
2018-05-07T10:06:01.640Z,48.25
2018-05-07T10:07:02.494Z,48.83
2018-05-07T10:08:01.646Z,49.60
2018-05-07T10:09:01.658Z,47.87
2018-05-07T10:10:01.672Z,49.63
2018-05-07T10:11:01.688Z,48.38
2018-05-07T10:12:01.697Z,46.64
2018-05-07T10:13:01.719Z,46.45
2018-05-07T10:14:01.722Z,46.73
2018-05-07T10:15:01.740Z,48.08
2018-05-07T10:16:01.753Z,48.66
2018-05-07T10:17:01.825Z,47.31
2018-05-07T10:18:01.778Z,46.04
2018-05-07T10:19:01.798Z,48.16
2018-05-07T10:20:01.809Z,49.70
2018-05-07T10:21:01.818Z,49.22
2018-05-07T10:22:01.833Z,47.99
2018-05-07T10:23:01.847Z,48.08
2018-05-07T10:24:01.857Z,47.80
2018-05-07T10:25:01.885Z,48.18
2018-05-07T10:26:01.892Z,46.37
2018-05-07T10:27:01.902Z,46.95
2018-05-07T10:28:01.918Z,48.97
2018-05-07T10:29:01.935Z,49.37
2018-05-07T10:30:01.943Z,46.97
2018-05-07T10:31:01.958Z,45.72
2018-05-07T10:32:01.975Z,48.13
2018-05-07T10:33:01.982Z,48.33
2018-05-07T10:34:02.010Z,46.69
2018-05-07T10:35:02.009Z,46.66
2018-05-07T10:36:02.022Z,48.49
2018-05-07T10:37:02.049Z,46.56
2018-05-07T10:38:02.195Z,47.63
2018-05-07T10:39:02.064Z,47.44
2018-05-07T10:40:02.082Z,48.11
2018-05-07T10:41:02.105Z,48.11
2018-05-07T10:42:02.107Z,48.01
2018-05-07T10:43:02.122Z,48.59
2018-05-07T10:44:02.137Z,49.37
2018-05-07T10:45:02.157Z,47.05
2018-05-07T10:46:02.171Z,48.71
2018-05-07T10:47:02.177Z,47.45
2018-05-07T10:48:02.192Z,47.36
2018-05-07T10:49:02.204Z,47.07
2018-05-07T10:50:02.255Z,48.13
2018-05-07T10:51:02.236Z,47.94
2018-05-07T10:52:02.248Z,47.45
2018-05-07T10:53:02.258Z,47.27
2018-05-07T10:54:02.280Z,45.51
2018-05-07T10:55:02.291Z,46.88
2018-05-07T10:56:02.312Z,45.51
2018-05-07T10:57:02.315Z,45.51
2018-05-07T10:58:02.333Z,44.45
2018-05-07T10:59:02.348Z,46.86
2018-05-07T11:00:02.358Z,45.92
2018-05-07T11:01:02.375Z,46.42
2018-05-07T11:02:02.399Z,46.61
2018-05-07T11:03:02.403Z,45.65
2018-05-07T11:04:02.423Z,45.36
2018-05-07T11:05:02.434Z,44.80
2018-05-07T11:06:02.447Z,44.78
2018-05-07T11:07:02.459Z,44.03
2018-05-07T11:08:02.479Z,42.50
2018-05-07T11:09:02.501Z,43.28
2018-05-07T11:10:02.501Z,42.21
2018-05-07T11:11:02.535Z,42.62
2018-05-07T11:12:02.542Z,42.62
2018-05-07T11:13:02.592Z,41.87
2018-05-07T11:14:02.561Z,42.47
2018-05-07T11:15:02.613Z,41.42
2018-05-07T11:16:02.594Z,39.70
2018-05-07T11:17:02.605Z,37.88
2018-05-07T11:18:02.629Z,37.40
2018-05-07T11:19:02.641Z,37.73
2018-05-07T11:20:02.660Z,37.35
2018-05-07T11:21:02.674Z,36.11
2018-05-07T11:22:02.694Z,35.45
2018-05-07T11:23:02.710Z,34.59
2018-05-07T11:24:02.728Z,34.40
2018-05-07T11:25:02.747Z,34.30
2018-05-07T11:26:02.782Z,33.95
2018-05-07T11:27:02.791Z,33.59
2018-05-07T11:28:02.822Z,31.64
2018-05-07T11:29:02.828Z,32.99
2018-05-07T11:30:02.848Z,33.01
2018-05-07T11:31:02.956Z,32.71
2018-05-07T11:32:02.912Z,32.31
2018-05-07T11:33:02.917Z,32.60
2018-05-07T11:34:02.945Z,31.54
2018-05-07T11:35:02.991Z,30.57
2018-05-07T11:36:02.987Z,30.21
2018-05-07T11:37:03.009Z,31.10
2018-05-07T11:38:03.030Z,30.31
2018-05-07T11:39:03.110Z,29.92
2018-05-07T11:40:03.078Z,31.41
2018-05-07T11:41:03.101Z,30.86
2018-05-07T11:42:03.135Z,31.15
2018-05-07T11:43:03.150Z,29.85
2018-05-07T11:44:03.174Z,29.08
2018-05-07T11:45:03.200Z,29.13
2018-05-07T11:46:03.224Z,28.59
2018-05-07T11:47:03.247Z,29.69
2018-05-07T11:48:03.274Z,28.74
2018-05-07T11:49:03.298Z,27.66
2018-05-07T11:50:03.322Z,27.54
2018-05-07T11:51:03.347Z,27.45
2018-05-07T11:52:03.380Z,28.82
2018-05-07T11:53:03.397Z,29.00
2018-05-07T11:54:03.431Z,29.22
2018-05-07T11:55:03.449Z,29.13
2018-05-07T11:56:03.473Z,27.49
2018-05-07T11:57:03.501Z,27.01
2018-05-07T11:58:03.537Z,25.74
2018-05-07T11:59:03.553Z,26.79
2018-05-07T12:00:03.580Z,27.88
2018-05-07T12:01:03.610Z,27.62
2018-05-07T12:02:03.631Z,28.44
2018-05-07T12:03:03.659Z,27.39
2018-05-07T12:04:03.686Z,27.08
2018-05-07T12:05:03.715Z,27.69
2018-05-07T12:06:03.739Z,27.21
2018-05-07T12:07:03.766Z,26.92
2018-05-07T12:08:03.793Z,25.44
2018-05-07T12:09:03.851Z,26.15
2018-05-07T12:10:03.846Z,26.06
2018-05-07T12:11:03.876Z,24.37
2018-05-07T12:12:03.898Z,24.96
2018-05-07T12:13:03.929Z,24.29
2018-05-07T12:14:03.956Z,25.26
2018-05-07T12:15:03.985Z,24.97
2018-05-07T12:16:04.091Z,25.27
2018-05-07T12:17:04.039Z,24.87
2018-05-07T12:18:04.071Z,24.87
2018-05-07T12:19:04.092Z,24.30
2018-05-07T12:20:04.120Z,24.96
2018-05-07T12:21:04.147Z,24.08
2018-05-07T12:22:04.184Z,24.26
2018-05-07T12:23:04.209Z,23.68
2018-05-07T12:24:04.234Z,25.06
2018-05-07T12:25:04.260Z,26.25
2018-05-07T12:26:04.295Z,25.57
2018-05-07T12:27:04.319Z,23.91
2018-05-07T12:28:04.344Z,23.93
2018-05-07T12:29:04.370Z,23.49
2018-05-07T12:30:04.402Z,24.79
2018-05-07T12:31:04.432Z,24.40
2018-05-07T12:32:04.454Z,23.70
2018-05-07T12:33:04.490Z,23.71
2018-05-07T12:34:04.515Z,24.31
2018-05-07T12:35:04.548Z,24.03
2018-05-07T12:36:04.577Z,24.04
2018-05-07T12:37:04.592Z,24.22
2018-05-07T12:38:04.626Z,25.61
2018-05-07T12:39:04.698Z,24.05
2018-05-07T12:40:04.680Z,23.27
2018-05-07T12:41:04.707Z,22.37
2018-05-07T12:42:04.736Z,24.36
2018-05-07T12:43:04.774Z,23.93
2018-05-07T12:44:04.795Z,24.97
2018-05-07T12:45:04.831Z,25.24
2018-05-07T12:46:04.859Z,25.76
2018-05-07T12:47:04.885Z,25.74
2018-05-07T12:48:04.911Z,24.54
2018-05-07T12:49:04.940Z,25.35
2018-05-07T12:50:04.969Z,24.90
2018-05-07T12:51:05.045Z,25.61
2018-05-07T12:52:05.064Z,23.47
2018-05-07T12:53:05.054Z,22.59
2018-05-07T12:54:05.126Z,23.09
2018-05-07T12:55:05.114Z,24.58
2018-05-07T12:56:05.142Z,23.18
2018-05-07T12:57:05.174Z,23.09
2018-05-07T12:58:05.199Z,21.52
2018-05-07T12:59:05.269Z,21.51
2018-05-07T13:00:05.260Z,21.43
2018-05-07T13:01:05.288Z,22.23
2018-05-07T13:02:05.321Z,21.91
2018-05-07T13:03:05.346Z,22.52
2018-05-07T13:04:05.378Z,20.78
2018-05-07T13:05:05.418Z,20.76
2018-05-07T13:06:05.432Z,21.76
2018-05-07T13:07:05.465Z,20.20
2018-05-07T13:08:05.508Z,19.72
2018-05-07T13:09:05.528Z,19.63
2018-05-07T13:10:05.551Z,19.72
2018-05-07T13:11:05.579Z,19.31
2018-05-07T13:12:05.612Z,20.59
2018-05-07T13:13:05.647Z,20.67
2018-05-07T13:14:05.671Z,20.76
2018-05-07T13:15:05.701Z,20.17
2018-05-07T13:16:05.729Z,20.72
2018-05-07T13:17:05.760Z,20.85
2018-05-07T13:18:05.790Z,20.57
2018-05-07T13:19:05.822Z,20.37
2018-05-07T13:20:05.850Z,20.18
2018-05-07T13:21:05.879Z,18.91
2018-05-07T13:22:05.908Z,19.42
2018-05-07T13:23:05.939Z,20.70
2018-05-07T13:24:05.972Z,19.80
2018-05-07T13:25:06.005Z,21.44
2018-05-07T13:26:06.031Z,20.64
2018-05-07T13:27:06.065Z,21.50
2018-05-07T13:28:06.086Z,22.06
2018-05-07T13:29:06.126Z,21.97
2018-05-07T13:30:06.150Z,22.10
2018-05-07T13:31:06.193Z,21.43
2018-05-07T13:32:06.206Z,20.07
2018-05-07T13:33:06.236Z,20.48
2018-05-07T13:34:06.266Z,19.58
2018-05-07T13:35:06.297Z,20.09
2018-05-07T13:36:06.323Z,19.58
2018-05-07T13:37:06.381Z,18.80
2018-05-07T13:38:06.384Z,20.98
2018-05-07T13:39:06.412Z,19.88
2018-05-07T13:40:06.440Z,19.69
2018-05-07T13:41:06.472Z,19.40
2018-05-07T13:42:06.500Z,19.40
2018-05-07T13:43:06.550Z,19.56
2018-05-07T13:44:06.559Z,20.91
2018-05-07T13:45:06.597Z,21.53
2018-05-07T13:46:06.617Z,21.54
2018-05-07T13:47:06.648Z,19.45
2018-05-07T13:48:06.678Z,22.20
2018-05-07T13:49:06.705Z,20.64
2018-05-07T13:50:06.737Z,20.94
2018-05-07T13:51:06.798Z,19.76
2018-05-07T13:52:06.800Z,20.07
2018-05-07T13:53:06.830Z,20.18